Time;durP1;ratioP1;P1;durP2;ratioP2;P2;SDS_P1;SDS_P2;PMS_P1;PMS_P2;Temp;Humidity;BMP_temperature;BMP_pressure;BME280_temperature;BME280_humidity;BME280_pressure;Samples;Min_cycle;Max_cycle;Signal;HPM_P1;HPM_P2
2023/03/29 17:51:32;;;;;;;40.03;17.95;;;;;;;;;;5073798;27;20648;-56
2023/03/29 17:53:58;;;;;;;36.67;15.35;;;;;;;;;;5034459;28;20821;-57
2023/03/29 17:56:25;;;;;;;33.33;14.95;;;;;;;;;;5016275;28;20852;-69
2023/03/29 17:58:51;;;;;;;30.60;12.70;;;;;;;;;;5042952;28;20980;-48
2023/03/29 18:01:20;;;;;;;;;;;;;;;;;;5042239;28;20787;-54
2023/03/29 18:10:50;;;;;;;10.80;7.30;;;23.00;57.20;;;;;;4971187;28;24470;-54
2023/03/29 18:26:46;;;;;;;32.72;23.33;;;;;;;;;;5179594;27;20479;-70
2023/03/29 18:29:12;;;;;;;41.30;31.48;;;;;;;;;;5122345;27;20054;-70
2023/03/29 18:31:39;;;;;;;36.28;28.83;;;;;;;;;;5107784;28;20051;-70
2023/03/29 18:34:05;;;;;;;37.33;27.38;;;;;;;;;;5105441;27;20052;-70
2023/03/29 18:36:31;;;;;;;44.17;30.52;;;;;;;;;;5108022;28;20043;-70
2023/03/29 18:39:04;;;;;;;46.10;32.83;;;;;;;;;;5124418;28;20050;-70
2023/03/29 18:41:30;;;;;;;47.77;32.73;;;;;;;;;;5125646;28;20430;-70
2023/03/29 18:43:58;;;;;;;47.77;33.50;;;;;;;;;;5133553;27;20051;-70
2023/03/29 18:46:29;;;;;;;57.77;36.87;;;;;;;;;;5125695;27;20794;-71
2023/03/29 18:48:56;;;;;;;60.77;36.53;;;;;;;;;;5133514;27;20412;-73
2023/03/29 18:51:22;;;;;;;63.67;38.60;;;;;;;;;;5125095;27;20039;-71
2023/03/29 18:53:48;;;;;;;60.40;38.03;;;;;;;;;;5128861;27;20040;-71
2023/03/29 18:56:14;;;;;;;68.33;41.43;;;;;;;;;;5122948;27;20041;-71
2023/03/29 18:58:40;;;;;;;59.37;39.27;;;;;;;;;;5108639;27;20495;-71
2023/03/29 19:01:06;;;;;;;63.07;40.87;;;;;;;;;;5139489;27;20043;-70
2023/03/29 19:03:33;;;;;;;65.87;41.20;;;;;;;;;;5145693;27;20039;-71
2023/03/29 19:06:00;;;;;;;61.10;38.70;;;;;;;;;;5127226;27;20051;-71
2023/03/29 19:08:27;;;;;;;67.47;41.40;;;;;;;;;;5129730;27;20055;-70
2023/03/29 19:10:53;;;;;;;62.27;40.90;;;;;;;;;;5122345;27;20054;-70
2023/03/29 19:13:19;;;;;;;62.93;41.10;;;;;;;;;;5135619;27;20401;-71
2023/03/29 19:15:46;;;;;;;68.60;43.10;;;;;;;;;;5132219;27;20057;-73
2023/03/29 19:18:12;;;;;;;67.53;43.60;;;;;;;;;;5123007;27;20047;-70
2023/03/29 19:20:38;;;;;;;69.07;46.13;;;;;;;;;;5134878;27;20043;-70
2023/03/29 19:23:05;;;;;;;64.87;42.73;;;;;;;;;;5132504;27;20047;-71
2023/03/29 19:25:31;;;;;;;64.27;43.17;;;;;;;;;;5138766;27;20085;-73
2023/03/29 19:27:57;;;;;;;69.17;43.83;;;;;;;;;;5121807;27;20039;-71
2023/03/29 19:30:24;;;;;;;60.80;42.17;;;;;;;;;;5137845;27;20043;-70
2023/03/29 19:32:51;;;;;;;69.60;43.57;;;;;;;;;;5136025;27;20054;-71
2023/03/29 19:35:17;;;;;;;67.87;45.63;;;;;;;;;;5126656;27;20385;-69
2023/03/29 19:37:43;;;;;;;63.30;42.70;;;;;;;;;;5106817;27;20048;-69
2023/03/29 19:40:10;;;;;;;64.90;43.37;;;;;;;;;;5113643;27;20051;-73
2023/03/29 19:42:40;;;;;;;69.63;44.93;;;;;;;;;;5120302;27;20489;-70
2023/03/29 19:45:06;;;;;;;67.17;44.80;;;;;;;;;;5107791;27;20049;-72
2023/03/29 19:47:33;;;;;;;63.47;41.50;;;;;;;;;;5114558;27;20051;-70
2023/03/29 19:49:59;;;;;;;60.43;41.33;;;;;;;;;;5119494;27;20083;-72
2023/03/29 19:52:26;;;;;;;63.83;41.33;;;;;;;;;;5112720;27;20062;-71
2023/03/29 19:54:53;;;;;;;58.57;41.37;;;;;;;;;;5119881;27;20094;-71
2023/03/29 19:57:20;;;;;;;63.23;42.13;;;;;;;;;;5086682;27;20043;-71
2023/03/29 19:59:46;;;;;;;60.63;41.63;;;;;;;;;;5131423;27;20047;-70
2023/03/29 20:02:13;;;;;;;62.33;42.47;;;;;;;;;;5128731;27;20050;-71
2023/03/29 20:04:39;;;;;;;61.37;42.87;;;;;;;;;;5130840;27;20044;-71
2023/03/29 20:07:05;;;;;;;59.13;41.63;;;;;;;;;;5114948;27;20065;-71
2023/03/29 20:09:31;;;;;;;55.93;40.33;;;;;;;;;;5131261;27;20099;-70
2023/03/29 20:11:58;;;;;;;59.67;41.70;;;;;;;;;;5131572;27;20488;-72
2023/03/29 20:14:24;;;;;;;60.37;41.37;;;;;;;;;;5131278;27;20047;-70
2023/03/29 20:16:51;;;;;;;58.63;42.07;;;;;;;;;;5098596;27;20045;-71
2023/03/29 20:19:17;;;;;;;51.17;38.27;;;;;;;;;;5130829;27;20408;-71
2023/03/29 20:21:44;;;;;;;53.03;38.40;;;;;;;;;;5131312;27;20047;-71
2023/03/29 20:24:10;;;;;;;58.23;38.03;;;;;;;;;;5130853;27;20043;-71
2023/03/29 20:26:36;;;;;;;52.33;36.97;;;;;;;;;;5117239;27;20485;-71
2023/03/29 20:29:03;;;;;;;53.53;36.87;;;;;;;;;;5110780;27;20389;-71
2023/03/29 20:31:30;;;;;;;51.70;37.43;;;;;;;;;;5131194;27;20035;-70
2023/03/29 20:33:56;;;;;;;55.73;37.30;;;;;;;;;;5130700;27;20094;-71
2023/03/29 20:36:22;;;;;;;50.67;36.07;;;;;;;;;;5118292;27;20031;-71
2023/03/29 20:38:50;;;;;;;50.77;35.83;;;;;;;;;;5128355;27;20043;-70
2023/03/29 20:41:18;;;;;;;49.37;36.10;;;;;;;;;;5130578;27;20039;-70
2023/03/29 20:43:45;;;;;;;50.70;37.97;;;;;;;;;;5121138;27;20390;-71
2023/03/29 20:46:22;;;;;;;48.47;36.50;;;;;;;;;;5122286;27;20415;-72
2023/03/29 20:48:54;;;;;;;52.83;37.47;;;;;;;;;;5126119;27;20138;-70
2023/03/29 20:51:26;;;;;;;57.07;37.37;;;;;;;;;;5129778;27;20039;-70
2023/03/29 20:53:52;;;;;;;54.60;37.37;;;;;;;;;;5122000;27;20490;-70
2023/03/29 20:56:19;;;;;;;50.73;35.50;;;;;;;;;;5107201;27;20043;-70
2023/03/29 20:58:45;;;;;;;51.03;36.63;;;;;;;;;;5115321;27;20160;-70
2023/03/29 21:01:13;;;;;;;48.10;36.50;;;;;;;;;;5118995;27;20505;-70
2023/03/29 21:03:40;;;;;;;48.43;35.37;;;;;;;;;;5120123;27;20050;-70
2023/03/29 21:06:08;;;;;;;48.47;35.50;;;;;;;;;;5113908;27;20046;-74
2023/03/29 21:08:34;;;;;;;48.80;34.90;;;;;;;;;;5103317;27;20048;-70
2023/03/29 21:11:00;;;;;;;49.63;35.13;;;;;;;;;;5113478;27;20043;-70
2023/03/29 21:13:26;;;;;;;49.00;35.87;;;;;;;;;;5126366;27;20051;-70
2023/03/29 21:15:52;;;;;;;48.47;35.70;;;;;;;;;;5130225;27;20039;-70
2023/03/29 21:18:18;;;;;;;50.43;35.43;;;;;;;;;;5113095;27;20084;-70
2023/03/29 21:20:44;;;;;;;45.20;34.83;;;;;;;;;;5127631;27;20054;-70
2023/03/29 21:23:10;;;;;;;44.13;33.83;;;;;;;;;;5129595;27;20130;-70
2023/03/29 21:25:37;;;;;;;45.77;34.03;;;;;;;;;;5129733;27;20126;-70
2023/03/29 21:28:03;;;;;;;48.17;36.37;;;;;;;;;;5095580;27;20495;-70
2023/03/29 21:30:29;;;;;;;44.47;33.23;;;;;;;;;;5124179;27;20492;-70
2023/03/29 21:32:55;;;;;;;44.27;34.10;;;;;;;;;;5107139;27;20134;-71
2023/03/29 21:35:21;;;;;;;44.10;35.00;;;;;;;;;;5127745;27;20447;-70
2023/03/29 21:37:47;;;;;;;43.03;34.57;;;;;;;;;;5112960;27;20408;-70
2023/03/29 21:40:14;;;;;;;43.87;34.73;;;;;;;;;;5117052;27;20046;-73
2023/03/29 21:42:40;;;;;;;41.97;33.23;;;;;;;;;;5102184;27;20054;-70
2023/03/29 21:45:06;;;;;;;47.23;32.90;;;;;;;;;;5123915;27;20219;-70
2023/03/29 21:47:32;;;;;;;41.63;32.47;;;;;;;;;;5105666;27;20059;-70
2023/03/29 21:49:58;;;;;;;42.27;32.27;;;;;;;;;;5123156;27;20082;-70
2023/03/29 21:52:24;;;;;;;39.63;30.63;;;;;;;;;;5115357;27;20050;-70
2023/03/29 21:54:50;;;;;;;41.23;31.80;;;;;;;;;;5099807;28;20040;-70
2023/03/29 21:57:16;;;;;;;43.37;30.77;;;;;;;;;;5078083;28;20040;-70
2023/03/29 21:59:42;;;;;;;37.43;30.93;;;;;;;;;;5105219;28;20130;-71
2023/03/29 22:02:09;;;;;;;37.93;30.20;;;;;;;;;;5089487;28;20526;-70
2023/03/29 22:04:35;;;;;;;38.93;29.97;;;;;;;;;;5107116;28;20051;-70
2023/03/29 22:07:01;;;;;;;34.03;28.40;;;;;;;;;;5066726;28;20152;-70
2023/03/29 22:09:27;;;;;;;36.00;27.83;;;;;;;;;;5102112;28;20120;-70
2023/03/29 22:11:53;;;;;;;36.77;27.83;;;;;;;;;;5093176;28;20044;-71
2023/03/29 22:14:20;;;;;;;35.40;28.17;;;;;;;;;;5103740;28;20167;-71
2023/03/29 22:16:46;;;;;;;34.50;27.53;;;;;;;;;;5082294;28;20056;-70
2023/03/29 22:19:12;;;;;;;36.30;28.43;;;;;;;;;;5090753;28;20504;-71
2023/03/29 22:21:39;;;;;;;37.03;27.50;;;;;;;;;;5108815;28;20043;-70
2023/03/29 22:24:06;;;;;;;35.30;27.87;;;;;;;;;;5080760;28;20086;-70
2023/03/29 22:26:32;;;;;;;37.03;27.47;;;;;;;;;;5076097;28;20597;-71
2023/03/29 22:28:59;;;;;;;33.80;26.90;;;;;;;;;;5105472;28;20048;-73
2023/03/29 22:31:26;;;;;;;33.60;27.17;;;;;;;;;;5094581;28;20035;-70
2023/03/29 22:33:53;;;;;;;37.20;26.60;;;;;;;;;;5108645;28;20450;-70
2023/03/29 22:36:19;;;;;;;35.97;26.13;;;;;;;;;;5097715;28;20358;-70
2023/03/29 22:38:46;;;;;;;31.53;24.60;;;;;;;;;;5104110;28;20056;-70
2023/03/29 22:41:12;;;;;;;31.70;25.87;;;;;;;;;;5100416;28;20055;-71
2023/03/29 22:43:38;;;;;;;31.77;25.83;;;;;;;;;;5107960;28;20623;-70
2023/03/29 22:46:05;;;;;;;32.63;24.17;;;;;;;;;;5106696;28;20172;-74
2023/03/29 22:48:32;;;;;;;34.00;25.17;;;;;;;;;;5096313;28;20064;-70
2023/03/29 22:50:58;;;;;;;31.20;25.10;;;;;;;;;;5107661;28;20460;-70
2023/03/29 22:53:24;;;;;;;33.37;27.20;;;;;;;;;;5097855;28;20532;-70
2023/03/29 22:55:50;;;;;;;32.93;26.23;;;;;;;;;;5099791;28;20486;-70
2023/03/29 22:58:16;;;;;;;32.80;25.80;;;;;;;;;;5081876;28;20055;-70
2023/03/29 23:00:42;;;;;;;33.50;25.27;;;;;;;;;;5092921;28;20065;-70
2023/03/29 23:03:08;;;;;;;36.17;26.07;;;;;;;;;;5094418;28;20059;-70
2023/03/29 23:05:35;;;;;;;33.63;26.43;;;;;;;;;;5093965;28;20047;-70
2023/03/29 23:08:01;;;;;;;34.87;26.20;;;;;;;;;;5072635;28;20063;-70
2023/03/29 23:10:30;;;;;;;33.13;25.40;;;;;;;;;;5096940;28;20044;-70
2023/03/29 23:13:09;;;;;;;33.23;25.57;;;;;;;;;;5103194;28;20052;-72
2023/03/29 23:15:41;;;;;;;34.30;26.53;;;;;;;;;;5094846;28;20048;-71
2023/03/29 23:18:08;;;;;;;34.93;25.30;;;;;;;;;;5089742;27;20126;-71
2023/03/29 23:20:34;;;;;;;36.33;25.97;;;;;;;;;;5092874;28;20447;-71
2023/03/29 23:23:01;;;;;;;36.50;25.53;;;;;;;;;;5100577;28;20101;-70
2023/03/29 23:25:27;;;;;;;30.93;25.20;;;;;;;;;;5104192;28;20065;-71
2023/03/29 23:27:53;;;;;;;30.77;25.30;;;;;;;;;;5087572;28;20186;-71
2023/03/29 23:30:20;;;;;;;34.40;26.20;;;;;;;;;;5100203;28;20570;-70
2023/03/29 23:32:47;;;;;;;31.70;24.83;;;;;;;;;;5105997;28;20138;-71
2023/03/29 23:35:13;;;;;;;29.57;23.60;;;;;;;;;;5103146;28;20432;-70
2023/03/29 23:37:39;;;;;;;31.97;23.87;;;;;;;;;;5083782;28;20052;-70
2023/03/29 23:40:10;;;;;;;30.40;23.57;;;;;;;;;;5095717;28;20108;-71
2023/03/29 23:42:38;;;;;;;30.33;23.42;;;;;;;;;;5092824;28;20534;-71
2023/03/29 23:45:05;;;;;;;31.60;24.17;;;;;;;;;;5094549;28;20044;-71
2023/03/29 23:47:31;;;;;;;26.63;22.53;;;;;;;;;;5088224;28;20059;-71
2023/03/29 23:50:00;;;;;;;35.20;22.87;;;;;;;;;;5103980;28;20101;-71
2023/03/29 23:52:27;;;;;;;26.73;21.90;;;;;;;;;;5107650;28;20075;-70
2023/03/29 23:54:53;;;;;;;23.70;17.70;;;;;;;;;;5105964;28;20119;-70
2023/03/29 23:57:20;;;;;;;25.87;18.43;;;;;;;;;;5077316;28;20043;-73
2023/03/29 23:59:46;;;;;;;22.27;18.30;;;;;;;;;;5100482;28;20185;-70
